• Join FlightAware (Why Join?)
  • Login
  • US Flag 
03:48PM EDT


 

Airport Tracker/Info


-or-


 

Live Flight TrackerFlight Track Log ✈ KAP927 ✈ 01-Jun-2013 ✈ KBOS - KALB

Flight Track Log - Related Links

Times and Time Zones

All times are in EDT time to prevent confusion due to time zone crossing. See the KAP927 flight status page for this flight to view local times or setup timezone preferences in your user account.

Time Position Orientation Groundspeed Altitude Reporting Facility
EDT Latitude Longitude Course Direction KTS MPH feet Rate Location/Type
01:07PM 42.3667 -71.0167 236° Southwest 87 100 400  Level KA90
01:08PM 42.3500 -71.0500 236° Southwest 103 119 1,100 420 Climbing KA90
01:09PM 42.3333 -71.1000 246° West 116 133 1,500 480 Climbing KA90
01:10PM 42.3500 -71.1333 304° West 119 137 2,100 600 Climbing KA90
01:11PM 42.3500 -71.1833 270° West 118 136 2,700 540 Climbing KA90
01:12PM 42.3500 -71.2167 270° West 123 142 3,200 480 Climbing KA90
01:13PM 42.3667 -71.2667 294° West 128 147 3,700 480 Climbing KA90
01:14PM 42.3694 -71.2908 279° West 130 150 3,900 480 Climbing Boston Center
01:15PM 42.3764 -71.3356 282° West 135 155 4,500 660 Climbing Boston Center
01:15PM 42.3833 -71.3667 287° West 123 142 5,000 660 Climbing KA90
01:16PM 42.3833 -71.4167 270° West 116 133 5,600 480 Climbing KA90
01:17PM 42.4000 -71.4667 294° West 124 143 6,100 420 Climbing KA90
01:18PM 42.4000 -71.5000 270° West 127 146 6,500 420 Climbing KA90
01:21PM 42.4203 -71.6075 284° West 127 146 7,600 420 Climbing Boston Center
01:22PM 42.4289 -71.6581 283° West 127 146 8,100 360 Climbing Boston Center
01:23PM 42.4356 -71.6975 283° West 122 140 8,400 180 Climbing Boston Center
01:24PM 42.4442 -71.7508 282° West 133 153 8,500  Climbing Boston Center
01:25PM 42.4508 -71.8014 280° West 146 168 8,500  Level Boston Center
01:26PM 42.4614 -71.8631 283° West 156 180 8,500  Level Boston Center
01:27PM 42.4700 -71.9139 283° West 161 185 8,500  Level Boston Center
01:28PM 42.4767 -71.9728 279° West 156 180 8,500  Level Boston Center
01:29PM 42.4850 -72.0206 283° West 150 173 8,500  Level Boston Center
01:30PM 42.4936 -72.0797 281° West 145 167 8,500  Level Boston Center
01:31PM 42.5000 -72.1247 281° West 145 167 8,500  Level Boston Center
01:32PM 42.5106 -72.1839 284° West 145 167 8,500  Level Boston Center
01:33PM 42.5169 -72.2317 280° West 145 167 8,500  Level Boston Center
01:34PM 42.5275 -72.2881 284° West 145 167 8,500  Level Boston Center
01:35PM 42.5358 -72.3414 282° West 150 173 8,500  Level Boston Center
01:36PM 42.5442 -72.3950 282° West 145 167 8,500  Level Boston Center
01:37PM 42.5525 -72.4458 283° West 145 167 8,500  Level Boston Center
01:38PM 42.5608 -72.4964 283° West 145 167 8,500  Level Boston Center
01:39PM 42.5669 -72.5500 279° West 145 167 8,600  Climbing Boston Center
01:40PM 42.5817 -72.6092 289° West 145 167 8,500 -300 Descending Boston Center
01:41PM 42.5856 -72.6572 276° West 143 165 8,100 -420 Descending Boston Center
01:42PM 42.5897 -72.7164 275° West 159 183 7,800 -240 Descending Boston Center
01:43PM 42.6019 -72.7758 286° West 159 183 7,700 -240 Descending Boston Center
01:44PM 42.6164 -72.8378 288° West 163 188 7,400 -240 Descending Boston Center
01:45PM 42.6286 -72.8972 286° West 163 188 7,200 -360 Descending Boston Center
01:46PM 42.6389 -72.9508 285° West 166 191 6,800 -420 Descending Boston Center
01:47PM 42.6511 -73.0131 285° West 169 194 6,400 -420 Descending Boston Center
01:48PM 42.6614 -73.0669 285° West 167 192 6,100 -300 Descending Boston Center
01:49PM 42.6733 -73.1264 285° West 158 182 5,900 -420 Descending Boston Center
01:50PM 42.6856 -73.1969 283° West 164 189 5,300 -600 Descending Boston Center
01:51PM 42.6975 -73.2594 285° West 163 188 4,700 -540 Descending Boston Center
01:52PM 42.7056 -73.3158 281° West 168 193 4,300 -480 Descending Boston Center
01:53PM 42.7194 -73.3925 284° West 167 192 3,700 -480 Descending Boston Center
01:54PM 42.7294 -73.4492 284° West 166 191 3,400 -240 Descending Boston Center
01:55PM 42.7392 -73.5058 283° West 168 193 3,300 -300 Descending Boston Center
01:56PM 42.7428 -73.5767 274° West 169 194 2,800 -480 Descending Boston Center
01:57PM 42.7464 -73.6389 275° West 177 204 2,400 -600 Descending Boston Center
01:58PM 42.7519 -73.6956 278° West 168 193 1,700 -780 Descending Boston Center
01:59PM 42.7492 -73.7547 266° West 151 174 1,000 -720 Descending Boston Center
02:01PM 42.7333 -73.8000 270° West  Level FlightAware Approximate